Lakeland, Michigan
Current Conditions -  °F | °C
As of 8:55 AM on Friday 31 Oct 2014 (Local Time) from KOZW Reporting Station
Drizzle Drizzle  
Wind Chill: 40°   Ceiling: 4400
Heat Index: 40°   Visibility: 10mi
Dew Point: 38°   Wind: 3mph
Humidity: 92%   Direction: 310°NW
Pressure: 29.89"   Gusts: NA
Location:  42.46°N, 83.84°W
Report Text: KOZW 311255Z AUTO 31003KT 10SM -DZ SCT019 SCT033 OVC044 04/03 A2989 RMK AO2 T00440032
Loading
Personal Weather Stations






























Interactive Weather Map
Tropical Storm Tracking
New forecast layout! Learn more

10-Day Weather Forecast

Advertisements
Track Severe Weather on mobile